Terminal Aerodrome Forecast
Issued by NWS

Home | Current Version | Previous Version | Text Only | Print | Product List | Glossary Off
Versions: 1 2 3 4 5 6 7 8 9 10 11 12 13 14 15 16 17 18 19 20 21 22 23 24 25 26

566
FTUS43 KBIS 191737
TAFJMS
TAF
KJMS 191737Z 1918/2018 18008KT P6SM FEW150
     FM191900 18008KT 4SM BR FEW110
     FM200100 16008KT 2SM BR BKN015
     FM200200 17009KT 1SM BR BKN010=

USA.gov is the U.S. government's official web portal to all federal, state and local government web resources and services.